Time;durP1;ratioP1;P1;durP2;ratioP2;P2;SDS_P1;SDS_P2;PMS_P1;PMS_P2;Temp;Humidity;BMP_temperature;BMP_pressure;BME280_temperature;BME280_humidity;BME280_pressure;Samples;Min_cycle;Max_cycle;Signal;HPM_P1;HPM_P2
2023/05/29 00:00:31;;;;;;;;;6.33;4.33;;;;;24.50;35.20;101855.41;6304901;22;45363;-71
2023/05/29 00:02:57;;;;;;;;;5.33;3.67;;;;;24.52;35.27;101853.41;6304657;22;45407;-72
2023/05/29 00:05:22;;;;;;;;;6.00;6.00;;;;;24.46;35.19;101841.59;6304381;22;46234;-72
2023/05/29 00:07:48;;;;;;;;;7.33;5.00;;;;;24.48;34.99;101844.13;6305061;22;45311;-72
2023/05/29 00:10:15;;;;;;;;;6.33;4.67;;;;;24.51;35.24;101857.88;6305165;22;45307;-71
2023/05/29 00:12:40;;;;;;;;;6.33;4.00;;;;;24.58;35.13;101870.50;6304501;22;45427;-72
2023/05/29 00:15:06;;;;;;;;;6.33;6.33;;;;;24.56;35.07;101861.88;6304380;22;45307;-71
2023/05/29 00:17:32;;;;;;;;;7.00;5.00;;;;;24.54;34.92;101856.72;6305018;22;45324;-72
2023/05/29 00:19:58;;;;;;;;;4.00;4.00;;;;;24.54;35.24;101867.34;6305143;22;45293;-72
2023/05/29 00:22:25;;;;;;;;;5.67;5.67;;;;;24.60;35.15;101868.50;6304469;22;45494;-71
2023/05/29 00:24:50;;;;;;;;;7.33;5.33;;;;;24.60;35.11;101868.50;6304151;22;45218;-71
2023/05/29 00:27:16;;;;;;;;;7.67;6.33;;;;;24.58;35.05;101867.84;6304315;22;45392;-71
2023/05/29 00:29:41;;;;;;;;;7.33;5.33;;;;;24.62;35.33;101871.81;6304473;22;45345;-71
2023/05/29 00:32:06;;;;;;;;;10.67;6.00;;;;;24.57;35.01;101859.03;6304513;22;45264;-71
2023/05/29 00:34:32;;;;;;;;;6.33;4.33;;;;;24.63;34.91;101868.16;6302688;22;48265;-71
2023/05/29 00:36:58;;;;;;;;;6.00;5.33;;;;;24.59;35.20;101861.53;6304475;22;45273;-71
2023/05/29 00:39:23;;;;;;;;;5.00;4.33;;;;;24.62;35.18;101867.31;6304705;22;45452;-70
2023/05/29 00:41:51;;;;;;;;;7.00;4.33;;;;;24.61;35.00;101868.34;6303792;22;45422;-71
2023/05/29 00:44:21;;;;;;;;;6.33;4.67;;;;;24.53;35.03;101857.72;6304264;22;46239;-72
2023/05/29 00:46:48;;;;;;;;;6.33;5.67;;;;;24.60;34.90;101860.50;6304119;22;45254;-71
2023/05/29 00:49:14;;;;;;;;;4.67;4.00;;;;;24.58;35.11;101860.69;6304836;22;45379;-71
2023/05/29 00:51:41;;;;;;;;;4.33;4.33;;;;;24.52;34.81;101858.72;6302588;22;45455;-72
2023/05/29 00:54:12;;;;;;;;;7.67;5.00;;;;;24.58;35.26;101862.53;6303918;22;45355;-71
2023/05/29 00:56:42;;;;;;;;;4.67;4.00;;;;;24.54;34.92;101854.03;6303839;22;45220;-72
2023/05/29 00:59:08;;;;;;;;;6.67;5.00;;;;;24.52;34.86;101864.03;6304284;22;45307;-71
2023/05/29 01:01:35;;;;;;;;;7.67;7.00;;;;;24.46;34.97;101846.13;6303954;22;45515;-72
2023/05/29 01:04:06;;;;;;;;;6.00;5.00;;;;;24.48;34.96;101860.06;6304625;22;45619;-71
2023/05/29 01:06:32;;;;;;;;;7.33;5.33;;;;;24.50;35.08;101866.03;6304656;22;45264;-71
2023/05/29 01:08:57;;;;;;;;;7.67;5.67;;;;;24.48;35.17;101865.41;6304742;22;45376;-71
2023/05/29 01:11:57;;;;;;;;;6.00;4.67;;;;;24.44;34.97;101856.91;6303552;22;45415;-71
2023/05/29 01:14:35;;;;;;;;;6.00;6.00;;;;;24.44;34.79;101861.41;6304588;22;46474;-71
2023/05/29 01:17:15;;;;;;;;;6.67;6.00;;;;;24.37;35.02;101855.94;6303866;22;45273;-71
2023/05/29 01:20:07;;;;;;;;;7.00;4.33;;;;;24.37;34.75;101851.47;6304251;22;45314;-71
2023/05/29 01:22:54;;;;;;;;;7.33;6.00;;;;;24.38;34.86;101857.63;6303937;22;45557;-71
2023/05/29 01:25:47;;;;;;;;;6.00;6.00;;;;;24.38;34.75;101858.44;6303524;22;46112;-71
2023/05/29 01:28:15;;;;;;;;;6.67;5.00;;;;;24.38;34.65;101857.63;6307370;22;45271;-71
2023/05/29 01:30:42;;;;;;;;;6.00;5.00;;;;;24.37;34.88;101859.44;6307699;22;45224;-71
2023/05/29 01:33:09;;;;;;;;;6.67;4.33;;;;;24.36;34.64;101855.13;6307427;22;45215;-71
2023/05/29 01:35:34;;;;;;;;;7.33;5.67;;;;;24.38;34.95;101861.09;6306407;22;45325;-72
2023/05/29 01:38:00;;;;;;;;;5.33;5.00;;;;;24.39;34.72;101861.91;6307762;22;45379;-71
2023/05/29 01:40:25;;;;;;;;;7.67;5.33;;;;;24.45;34.71;101868.41;6307264;22;45222;-71
2023/05/29 01:42:51;;;;;;;;;4.00;3.67;;;;;24.37;34.67;101845.31;6305868;22;45485;-72
2023/05/29 01:45:17;;;;;;;;;8.00;4.33;;;;;24.37;34.64;101851.47;6306897;22;45507;-72
2023/05/29 01:47:43;;;;;;;;;6.00;6.00;;;;;24.45;34.54;101873.72;6307097;22;45634;-71
2023/05/29 01:50:10;;;;;;;;;5.67;3.67;;;;;24.46;34.42;101873.53;6307350;22;45258;-72
2023/05/29 01:52:36;;;;;;;;;5.00;5.00;;;;;24.44;34.49;101867.56;6307444;22;45380;-71
2023/05/29 01:55:01;;;;;;;;;4.00;4.00;;;;;24.31;34.45;101848.66;6306606;22;45341;-71
2023/05/29 01:57:27;;;;;;;;;2.67;2.67;;;;;24.40;34.24;101867.09;6307136;22;45272;-72
2023/05/29 01:59:54;;;;;;;;;6.33;4.00;;;;;24.38;34.28;101862.94;6307512;22;45248;-70
2023/05/29 02:02:21;;;;;;;;;4.67;4.00;;;;;24.42;34.50;101868.72;6307062;22;45381;-71
2023/05/29 02:04:47;;;;;;;;;8.00;5.00;;;;;24.38;34.71;101874.38;6306934;22;46152;-71
2023/05/29 02:07:12;;;;;;;;;6.33;3.33;;;;;24.36;34.42;101860.44;6307341;22;45425;-71
2023/05/29 02:09:38;;;;;;;;;9.00;7.33;;;;;24.36;34.32;101860.44;6306557;22;45263;-72
2023/05/29 02:12:03;;;;;;;;;5.67;4.00;;;;;24.34;34.22;101865.09;6307194;22;45545;-72
2023/05/29 02:14:29;;;;;;;;;1.33;1.33;;;;;24.31;34.16;101854.78;6307310;22;46440;-72
2023/05/29 02:16:54;;;;;;;;;7.33;5.00;;;;;24.32;34.24;101858.28;6307474;22;45186;-71
2023/05/29 02:19:19;;;;;;;;;5.00;5.00;;;;;24.27;34.67;101857.00;6307199;22;45194;-72
2023/05/29 02:21:48;;;;;;;;;5.33;3.00;;;;;24.24;34.41;101881.22;6307075;22;45404;-71
2023/05/29 02:24:13;;;;;;;;;5.00;5.00;;;;;24.22;34.28;101872.59;6306790;22;46311;-71
2023/05/29 02:26:40;;;;;;;;;5.67;5.00;;;;;24.14;34.67;101870.78;6307290;22;45364;-71
2023/05/29 02:29:05;;;;;;;;;7.33;5.67;;;;;24.13;34.54;101873.59;6307267;22;45395;-71
2023/05/29 02:31:31;;;;;;;;;8.00;7.00;;;;;24.18;34.76;101880.06;6306901;22;45437;-71
2023/05/29 02:33:56;;;;;;;;;7.67;6.33;;;;;24.13;35.16;101877.09;6307211;22;45585;-71
2023/05/29 02:36:21;;;;;;;;;6.00;4.67;;;;;24.06;34.72;101860.16;6306688;22;45347;-71
2023/05/29 02:38:47;;;;;;;;;5.67;5.00;;;;;24.07;34.99;101870.63;6304328;22;45349;-71
2023/05/29 02:41:12;;;;;;;;;6.00;5.67;;;;;24.05;35.01;101869.97;6305367;22;45193;-71
2023/05/29 02:43:37;;;;;;;;;7.00;7.00;;;;;23.94;34.73;101851.72;6305260;22;46073;-71
2023/05/29 02:46:03;;;;;;;;;6.67;5.33;;;;;24.00;34.85;101872.28;6305278;22;45291;-71
2023/05/29 02:48:29;;;;;;;;;8.00;7.00;;;;;23.88;35.13;101849.72;6304021;22;45306;-72
2023/05/29 02:50:54;;;;;;;;;7.67;5.67;;;;;23.98;35.42;101871.63;6305091;22;45422;-71
2023/05/29 02:53:19;;;;;;;;;7.33;6.33;;;;;24.03;35.16;101881.75;6304750;22;45634;-72
2023/05/29 02:55:45;;;;;;;;;8.67;6.67;;;;;24.00;35.31;101872.28;6305197;22;45225;-71
2023/05/29 02:58:11;;;;;;;;;7.00;6.33;;;;;24.01;35.43;101870.47;6304820;22;45249;-72
2023/05/29 03:00:36;;;;;;;;;6.67;6.33;;;;;24.03;35.33;101885.25;6305025;22;45206;-71
2023/05/29 03:03:03;;;;;;;;;6.67;6.67;;;;;24.01;35.77;101878.44;6305185;22;45395;-72
2023/05/29 03:05:28;;;;;;;;;7.33;6.00;;;;;24.00;35.53;101866.16;6304816;22;45356;-71
2023/05/29 03:07:53;;;;;;;;;7.67;7.67;;;;;24.01;35.35;101875.78;6304790;22;45292;-71
2023/05/29 03:10:19;;;;;;;;;7.50;6.25;;;;;24.01;35.21;101878.44;6305147;22;45202;-71
2023/05/29 03:12:44;;;;;;;;;7.50;7.00;;;;;24.03;35.47;101877.28;6305296;22;45395;-71
2023/05/29 03:15:10;;;;;;;;;8.25;8.25;;;;;24.03;35.73;101879.09;6304947;22;45329;-71
2023/05/29 03:17:37;;;;;;;;;9.25;6.25;;;;;24.01;35.57;101875.78;6305518;22;45281;-71
2023/05/29 03:20:05;;;;;;;;;10.75;8.50;;;;;23.95;36.13;101880.78;6304534;22;45491;-71
2023/05/29 03:22:32;;;;;;;;;8.75;8.50;;;;;23.85;35.87;101861.53;6304068;22;46538;-71
2023/05/29 03:24:57;;;;;;;;;13.25;8.75;;;;;23.96;35.73;101879.78;6304964;22;45264;-71
2023/05/29 03:27:23;;;;;;;;;11.33;10.00;;;;;23.92;35.77;101883.75;6304795;22;45573;-71
2023/05/29 03:29:48;;;;;;;;;8.00;8.00;;;;;23.78;35.76;101861.38;6304874;22;45272;-71
2023/05/29 03:32:14;;;;;;;;;11.00;10.25;;;;;23.94;36.04;101895.06;6303543;22;45514;-71
2023/05/29 03:34:39;;;;;;;;;8.00;7.00;;;;;23.88;35.97;101886.94;6304688;22;45265;-71
2023/05/29 03:37:05;;;;;;;;;9.50;9.50;;;;;23.89;36.37;101893.91;6304584;22;45374;-71
2023/05/29 03:39:31;;;;;;;;;11.25;7.25;;;;;23.82;36.21;101889.25;6304714;22;45252;-71
2023/05/29 03:41:56;;;;;;;;;9.00;8.00;;;;;23.79;36.27;101881.63;6304250;22;47560;-71
2023/05/29 03:44:21;;;;;;;;;11.75;10.50;;;;;23.84;36.13;101897.06;6304877;22;45307;-70
2023/05/29 03:46:47;;;;;;;;;11.25;10.75;;;;;23.83;36.71;101892.75;6305176;22;45329;-70
2023/05/29 03:49:12;;;;;;;;;13.50;9.50;;;;;23.74;36.75;101890.09;6304399;22;45386;-71
2023/05/29 03:51:38;;;;;;;;;9.00;9.00;;;;;23.79;36.21;101891.41;6303880;22;46373;-71
2023/05/29 03:54:03;;;;;;;;;8.75;8.75;;;;;23.73;36.67;101892.94;6304528;22;45436;-71
2023/05/29 03:56:28;;;;;;;;;13.75;9.50;;;;;23.77;36.37;101902.22;6305224;22;45285;-71
2023/05/29 03:58:55;;;;;;;;;10.50;9.00;;;;;23.68;36.61;101890.75;6304719;22;45264;-71
2023/05/29 04:01:20;;;;;;;;;16.00;10.75;;;;;23.68;37.10;101888.09;6304803;22;45257;-71
2023/05/29 04:03:46;;;;;;;;;12.25;10.75;;;;;23.73;36.68;101899.06;6304456;22;45325;-71
2023/05/29 04:06:12;;;;;;;;;12.00;10.75;;;;;23.71;36.87;101897.56;6304597;22;45176;-71
2023/05/29 04:08:38;;;;;;;;;12.25;9.25;;;;;23.71;36.92;101901.03;6304703;22;45443;-71
2023/05/29 04:11:03;;;;;;;;;11.00;10.25;;;;;23.73;36.96;101901.72;6304526;22;46212;-71
2023/05/29 04:13:29;;;;;;;;;10.25;10.25;;;;;23.69;36.71;101889.75;6304645;22;45307;-72
2023/05/29 04:15:55;;;;;;;;;10.75;9.25;;;;;23.71;36.64;101900.22;6305018;22;45321;-71
2023/05/29 04:18:21;;;;;;;;;13.00;10.75;;;;;23.74;36.62;101905.19;6303449;22;45599;-71
2023/05/29 04:20:47;;;;;;;;;9.75;8.25;;;;;23.71;37.00;101903.69;6304390;22;46747;-71
2023/05/29 04:23:13;;;;;;;;;10.25;9.75;;;;;23.69;36.78;101900.38;6304637;22;45390;-71
2023/05/29 04:25:39;;;;;;;;;11.25;9.75;;;;;23.72;37.12;101908.03;6304555;22;45233;-71
2023/05/29 04:28:04;;;;;;;;;9.00;8.75;;;;;23.65;36.68;101892.94;6304471;22;45154;-71
2023/05/29 04:30:32;;;;;;;;;8.25;8.25;;;;;23.70;36.96;101917.16;6304460;22;45170;-71
2023/05/29 04:32:57;;;;;;;;;11.00;11.00;;;;;23.71;36.97;101909.03;6304397;22;45197;-71
2023/05/29 04:35:23;;;;;;;;;11.25;10.25;;;;;23.72;36.77;101915.16;6304438;22;45276;-71
2023/05/29 04:37:48;;;;;;;;;13.00;10.00;;;;;23.74;37.40;101921.97;6304180;22;45238;-71
2023/05/29 04:40:17;;;;;;;;;13.25;12.75;;;;;23.70;36.92;101915.34;6304841;22;45543;-71
2023/05/29 04:42:45;;;;;;;;;10.00;10.00;;;;;23.74;37.07;101929.13;6304035;22;45232;-71
2023/05/29 04:45:11;;;;;;;;;10.25;8.50;;;;;23.77;36.75;101942.06;6304137;22;45342;-71
2023/05/29 04:47:43;;;;;;;;;12.25;9.50;;;;;23.71;37.09;101927.63;6304236;22;45364;-72
2023/05/29 04:50:12;;;;;;;;;9.00;9.00;;;;;23.72;36.74;101939.09;6303804;22;46328;-71
2023/05/29 04:52:38;;;;;;;;;10.50;10.50;;;;;23.73;36.96;101938.09;6304167;22;45233;-71
2023/05/29 04:55:05;;;;;;;;;11.75;9.00;;;;;23.72;36.93;101942.56;6304084;22;45378;-71
2023/05/29 04:57:30;;;;;;;;;11.00;9.50;;;;;23.71;36.89;101946.22;6304931;22;45510;-71
2023/05/29 04:59:55;;;;;;;;;11.25;11.25;;;;;23.69;36.72;101958.00;6303744;22;46110;-71
2023/05/29 05:02:21;;;;;;;;;13.00;13.00;;;;;23.67;37.01;101947.56;6303609;22;45268;-71
2023/05/29 05:04:46;;;;;;;;;12.50;9.50;;;;;23.63;37.11;101947.03;6304388;22;45660;-71
2023/05/29 05:07:12;;;;;;;;;12.00;10.50;;;;;23.62;36.89;101950.72;6304123;22;45376;-71
2023/05/29 05:09:38;;;;;;;;;14.25;9.75;;;;;23.67;36.99;101952.88;6303817;22;46189;-71
2023/05/29 05:12:03;;;;;;;;;13.50;12.00;;;;;23.66;37.02;101963.63;6302487;22;45372;-71
2023/05/29 05:14:28;;;;;;;;;10.75;9.50;;;;;23.73;37.06;101968.13;6304604;22;45268;-71
2023/05/29 05:16:54;;;;;;;;;11.00;9.00;;;;;23.67;36.87;101947.56;6304738;22;45321;-71
2023/05/29 05:19:19;;;;;;;;;9.75;9.50;;;;;23.67;36.66;101952.88;6303540;22;46911;-71
2023/05/29 05:21:45;;;;;;;;;11.00;9.00;;;;;23.74;36.55;101963.66;6304519;22;45292;-71
2023/05/29 05:24:10;;;;;;;;;8.67;8.67;;;;;23.65;37.13;101946.06;6304226;22;45280;-71
2023/05/29 05:26:35;;;;;;;;;10.00;9.00;;;;;23.68;36.81;101959.81;6304448;22;45433;-71
2023/05/29 05:29:01;;;;;;;;;11.75;10.00;;;;;23.77;36.80;101978.44;6304245;22;45977;-71
2023/05/29 05:31:26;;;;;;;;;11.25;8.50;;;;;23.74;37.00;101971.63;6302389;22;45447;-72
2023/05/29 05:33:52;;;;;;;;;12.00;10.00;;;;;23.78;36.91;101985.44;6303624;22;45376;-71
2023/05/29 05:36:17;;;;;;;;;10.50;10.50;;;;;23.74;36.61;101976.94;6302515;22;45273;-71
2023/05/29 05:38:43;;;;;;;;;8.25;8.25;;;;;23.73;36.90;101973.44;6303701;22;45227;-72
2023/05/29 05:41:08;;;;;;;;;11.00;9.00;;;;;23.76;36.67;101974.13;6303729;22;45289;-71
2023/05/29 05:43:33;;;;;;;;;11.00;9.25;;;;;23.81;36.78;101985.09;6304558;22;45247;-71
2023/05/29 05:45:59;;;;;;;;;8.50;8.00;;;;;23.78;36.44;101986.25;6304285;22;45410;-71
2023/05/29 05:48:25;;;;;;;;;12.00;9.75;;;;;23.80;36.66;101989.59;6303430;22;46148;-72
2023/05/29 05:50:50;;;;;;;;;12.00;10.33;;;;;23.82;36.51;101950.38;6303786;22;45323;-73
2023/05/29 05:53:16;;;;;;;;;10.33;8.33;;;;;23.91;36.53;101999.06;6302327;22;45341;-71
2023/05/29 05:55:42;;;;;;;;;9.25;8.50;;;;;24.02;36.77;101960.66;6303751;22;45312;-71
2023/05/29 05:58:07;;;;;;;;;6.50;6.50;;;;;24.10;36.99;101957.19;6301976;22;48231;-71
2023/05/29 06:00:32;;;;;;;;;9.75;8.50;;;;;24.18;37.09;101957.19;6303241;22;45481;-71
2023/05/29 06:02:59;;;;;;;;;11.00;8.00;;;;;24.32;37.46;101972.66;6301826;22;45325;-70
2023/05/29 06:05:24;;;;;;;;;11.50;9.75;;;;;24.39;37.47;101982.44;6303604;22;45411;-71
2023/05/29 06:07:50;;;;;;;;;7.75;7.75;;;;;24.42;37.83;101983.09;6302932;22;46142;-71
2023/05/29 06:10:15;;;;;;;;;12.50;10.75;;;;;24.40;37.47;101973.47;6303253;22;45230;-71
2023/05/29 06:12:40;;;;;;;;;12.25;10.75;;;;;24.52;37.73;101984.59;6302615;22;45227;-71
2023/05/29 06:15:06;;;;;;;;;11.00;10.25;;;;;24.57;37.66;101994.72;6304905;22;45421;-71
2023/05/29 06:17:32;;;;;;;;;10.50;9.75;;;;;24.48;37.63;101969.13;6304001;22;45482;-71
2023/05/29 06:19:57;;;;;;;;;11.75;10.50;;;;;24.65;37.29;102001.00;6304916;22;45249;-72
2023/05/29 06:22:23;;;;;;;;;9.75;8.75;;;;;24.63;37.24;101988.72;6304883;22;45221;-72
2023/05/29 06:24:48;;;;;;;;;11.00;9.00;;;;;24.69;37.20;101997.88;6303766;22;45361;-72
2023/05/29 06:27:13;;;;;;;;;11.00;9.50;;;;;24.68;37.60;101992.69;6302761;22;56923;-72
2023/05/29 06:29:39;;;;;;;;;12.00;10.50;;;;;24.69;37.31;101995.19;6305265;22;45327;-72
2023/05/29 06:32:05;;;;;;;;;8.75;8.00;;;;;24.66;37.44;101978.72;6304956;22;45278;-71
2023/05/29 06:34:30;;;;;;;;;13.67;10.67;;;;;24.71;37.36;102009.16;6302616;22;45336;-71
2023/05/29 06:36:56;;;;;;;;;10.50;9.00;;;;;24.80;37.61;102023.25;6304400;22;45391;-74
2023/05/29 06:39:21;;;;;;;;;9.25;9.25;;;;;24.82;37.39;102017.78;6304625;22;45287;-71
2023/05/29 06:41:46;;;;;;;;;9.67;9.00;;;;;24.94;37.26;102026.22;6303375;22;45283;-73
2023/05/29 06:44:12;;;;;;;;;8.33;7.67;;;;;25.01;37.12;102010.44;6305042;22;45221;-73
2023/05/29 06:46:37;;;;;;;;;12.00;12.00;;;;;25.02;37.25;102014.75;6305023;22;46180;-69
2023/05/29 06:49:03;;;;;;;;;13.75;10.50;;;;;25.10;37.34;102021.88;6304239;22;45238;-73
2023/05/29 06:51:29;;;;;;;;;10.75;10.25;;;;;25.14;37.23;102025.84;6305357;22;45324;-73
2023/05/29 06:53:54;;;;;;;;;8.75;8.75;;;;;25.21;36.79;102026.84;6305455;22;45506;-70
2023/05/29 06:56:20;;;;;;;;;9.67;8.33;;;;;25.14;35.71;102018.69;6305177;22;45289;-71
2023/05/29 06:58:46;;;;;;;;;12.25;10.50;;;;;25.07;35.25;102033.69;6304591;22;45296;-70
2023/05/29 07:01:11;;;;;;;;;12.25;10.00;;;;;25.00;35.47;102032.69;6303016;22;45307;-71
2023/05/29 07:03:37;;;;;;;;;11.75;11.75;;;;;25.00;35.35;102052.19;6305372;22;45452;-71
2023/05/29 07:06:03;;;;;;;;;10.25;9.00;;;;;24.99;35.46;102036.34;6305108;22;45937;-72
2023/05/29 07:08:29;;;;;;;;;10.00;8.67;;;;;24.90;35.35;102011.59;6303160;22;45983;-72
2023/05/29 07:10:55;;;;;;;;;9.75;9.00;;;;;25.03;35.40;102013.75;6304890;22;45364;-76
2023/05/29 07:13:20;;;;;;;;;11.25;8.25;;;;;25.07;34.85;102029.22;6304505;22;45312;-73
2023/05/29 07:15:46;;;;;;;;;15.00;11.00;;;;;24.96;34.92;102021.56;6304936;22;45436;-73
2023/05/29 07:18:11;;;;;;;;;10.25;8.75;;;;;24.89;34.92;102015.25;6304704;22;45355;-72
2023/05/29 07:20:37;;;;;;;;;10.75;10.75;;;;;24.92;35.02;102030.91;6304822;22;45478;-72
2023/05/29 07:23:03;;;;;;;;;10.75;8.00;;;;;24.74;34.37;102019.47;6303226;22;45431;-72
2023/05/29 07:25:28;;;;;;;;;14.25;9.50;;;;;24.71;34.67;102018.97;6304005;22;46431;-72
2023/05/29 07:27:54;;;;;;;;;8.50;7.75;;;;;24.58;34.69;102015.00;6304172;22;45240;-72
2023/05/29 07:30:19;;;;;;;;;10.75;8.50;;;;;24.51;34.78;102027.34;6304752;22;45221;-73
2023/05/29 07:32:45;;;;;;;;;9.25;9.00;;;;;24.38;34.81;102015.34;6304013;22;45586;-73
2023/05/29 07:35:10;;;;;;;;;9.33;9.33;;;;;24.44;34.69;102032.47;6302731;22;46198;-73
2023/05/29 07:37:36;;;;;;;;;9.75;8.25;;;;;24.39;35.15;102022.34;6304365;22;45222;-72
2023/05/29 07:40:04;;;;;;;;;7.67;7.67;;;;;24.37;35.12;102028.84;6304539;22;45539;-73
2023/05/29 07:42:29;;;;;;;;;11.75;8.50;;;;;24.35;34.66;102029.00;6304019;22;45399;-73
2023/05/29 07:44:54;;;;;;;;;8.25;6.75;;;;;24.35;34.57;102028.16;6304207;22;46177;-73
2023/05/29 07:47:20;;;;;;;;;8.75;8.75;;;;;24.34;34.98;102035.31;6304896;22;45335;-73
2023/05/29 07:49:45;;;;;;;;;11.00;9.00;;;;;24.27;34.81;102031.66;6304566;22;45225;-73
2023/05/29 07:52:10;;;;;;;;;12.50;10.00;;;;;24.31;34.50;102032.97;6304175;22;45469;-73
2023/05/29 07:54:38;;;;;;;;;10.00;6.00;;;;;24.34;35.12;102045.13;6304727;22;46118;-73
2023/05/29 07:57:09;;;;;;;;;9.00;9.00;;;;;24.31;35.08;102029.50;6303847;22;45314;-74
2023/05/29 07:59:35;;;;;;;;;9.25;7.50;;;;;24.37;34.66;102034.16;6304311;22;45443;-74
2023/05/29 08:02:03;;;;;;;;;13.00;9.75;;;;;24.41;34.71;102040.78;6304672;22;45504;-74
2023/05/29 08:04:29;;;;;;;;;7.25;7.25;;;;;24.37;34.60;102028.84;6304725;22;45687;-75
2023/05/29 08:06:55;;;;;;;;;9.25;8.00;;;;;24.43;34.86;102038.81;6302845;22;45351;-74
2023/05/29 08:09:20;;;;;;;;;8.00;8.00;;;;;24.41;35.18;102022.16;6305124;22;45281;-74
2023/05/29 08:11:47;;;;;;;;;8.00;8.00;;;;;24.46;34.78;102045.63;6303930;22;45229;-74
2023/05/29 08:14:13;;;;;;;;;11.50;9.75;;;;;24.40;34.95;102026.69;6304283;22;45307;-74
2023/05/29 08:16:38;;;;;;;;;9.00;7.50;;;;;24.36;34.78;102017.34;6304413;22;45220;-74
2023/05/29 08:19:04;;;;;;;;;7.50;6.50;;;;;24.47;34.88;102026.00;6304233;22;45311;-73
2023/05/29 08:21:31;;;;;;;;;6.25;5.50;;;;;24.52;34.86;102032.47;6302215;22;45263;-73
2023/05/29 08:23:57;;;;;;;;;8.75;6.00;;;;;24.46;34.99;102024.34;6302634;22;45396;-72
2023/05/29 08:26:22;;;;;;;;;7.75;6.25;;;;;24.59;34.78;102037.13;6303706;22;45265;-73
2023/05/29 08:28:48;;;;;;;;;7.50;6.50;;;;;24.34;34.87;101992.75;6303931;22;45235;-73
2023/05/29 08:31:13;;;;;;;;;6.50;5.75;;;;;24.55;34.57;102023.31;6303698;22;45256;-72
2023/05/29 08:33:38;;;;;;;;;9.00;7.25;;;;;24.55;34.59;102015.34;6304551;22;45529;-73
2023/05/29 08:36:04;;;;;;;;;10.25;7.25;;;;;24.58;35.00;102030.97;6303171;22;45253;-72
2023/05/29 08:38:29;;;;;;;;;7.50;6.75;;;;;24.60;34.89;102023.66;6304341;22;45271;-73
2023/05/29 08:40:57;;;;;;;;;7.25;5.25;;;;;24.66;34.71;102037.28;6301885;22;45421;-73
2023/05/29 08:43:23;;;;;;;;;7.75;7.25;;;;;24.64;34.92;102024.16;6303645;22;45400;-71
2023/05/29 08:45:54;;;;;;;;;9.00;7.67;;;;;24.68;34.48;102033.44;6303645;22;45336;-71
2023/05/29 08:48:24;;;;;;;;;7.50;6.00;;;;;24.50;34.76;102012.34;6304240;22;45214;-73
2023/05/29 08:50:52;;;;;;;;;10.33;6.00;;;;;24.65;34.91;102020.47;6303700;22;45256;-72
2023/05/29 08:53:18;;;;;;;;;6.33;6.33;;;;;24.65;34.76;102028.47;6303411;22;46116;-73
2023/05/29 08:55:45;;;;;;;;;7.33;5.00;;;;;24.68;34.55;102037.94;6303520;22;45275;-73
2023/05/29 08:58:11;;;;;;;;;5.33;5.00;;;;;24.67;34.69;102025.66;6304147;22;45294;-72
2023/05/29 09:00:36;;;;;;;;;7.00;7.00;;;;;24.69;34.91;102020.97;6303258;22;45420;-72
2023/05/29 09:03:03;;;;;;;;;7.00;5.67;;;;;24.71;34.68;102030.44;6303489;22;46204;-72
2023/05/29 09:05:29;;;;;;;;;9.00;6.00;;;;;24.70;34.49;102028.78;6303716;22;45356;-73
2023/05/29 09:07:55;;;;;;;;;10.33;6.67;;;;;24.77;34.67;102028.94;6303423;22;45273;-72
2023/05/29 09:10:22;;;;;;;;;4.67;4.00;;;;;24.75;34.63;102014.97;6303119;22;45326;-73
2023/05/29 09:12:49;;;;;;;;;9.00;5.00;;;;;24.85;35.02;102023.59;6303986;22;46093;-72
2023/05/29 09:15:20;;;;;;;;;5.00;5.00;;;;;24.91;34.82;102037.22;6303677;22;45328;-73
2023/05/29 09:17:57;;;;;;;;;4.67;4.67;;;;;24.89;34.71;102025.91;6303708;22;45300;-73
2023/05/29 09:20:23;;;;;;;;;5.00;5.00;;;;;24.90;34.39;102020.44;6303192;22;45492;-72
2023/05/29 09:22:57;;;;;;;;;7.00;5.67;;;;;24.89;34.62;102017.91;6303553;22;45276;-72
2023/05/29 09:25:27;;;;;;;;;5.00;4.33;;;;;24.97;34.53;102025.88;6303216;22;45268;-72
2023/05/29 09:27:57;;;;;;;;;7.33;6.33;;;;;25.00;34.63;102036.19;6303078;22;45296;-72
2023/05/29 09:30:40;;;;;;;;;6.00;5.00;;;;;25.02;34.62;102034.22;6301634;22;45368;-73
2023/05/29 09:33:10;;;;;;;;;5.33;4.00;;;;;25.01;34.51;102027.22;6302812;22;45558;-72
2023/05/29 09:35:39;;;;;;;;;7.33;4.33;;;;;25.06;34.64;102032.88;6303339;22;45270;-72
2023/05/29 09:38:05;;;;;;;;;4.67;3.67;;;;;25.10;34.80;102038.69;6303794;22;45292;-73
2023/05/29 09:40:36;;;;;;;;;5.33;3.67;;;;;25.13;34.88;102034.84;6303088;22;45303;-73
2023/05/29 09:43:19;;;;;;;;;4.00;2.33;;;;;25.18;34.79;102046.66;6303443;22;45417;-72
2023/05/29 09:45:47;;;;;;;;;5.00;4.00;;;;;25.15;34.69;102024.84;6302921;22;45253;-72
2023/05/29 09:48:17;;;;;;;;;6.33;6.00;;;;;25.22;34.92;102038.28;6304332;22;45271;-74
2023/05/29 09:50:47;;;;;;;;;4.33;3.67;;;;;25.20;34.68;102025.16;6303945;22;45441;-73
2023/05/29 09:53:24;;;;;;;;;5.00;4.00;;;;;25.27;34.82;102034.09;6303630;22;46308;-74
2023/05/29 09:55:51;;;;;;;;;5.00;4.33;;;;;25.36;34.96;102028.75;6304345;22;45418;-71
2023/05/29 09:58:20;;;;;;;;;8.00;6.00;;;;;25.38;35.10;102037.41;6304565;22;45598;-73
2023/05/29 10:00:49;;;;;;;;;10.33;5.67;;;;;25.35;34.89;102025.25;6304824;22;45415;-73
2023/05/29 10:03:16;;;;;;;;;7.67;5.67;;;;;25.43;34.59;102023.53;6302552;22;46351;-72
2023/05/29 10:05:43;;;;;;;;;6.00;5.33;;;;;25.40;34.95;102011.41;6304272;22;45245;-73
2023/05/29 10:08:15;;;;;;;;;4.00;4.00;;;;;25.44;34.70;102018.06;6304713;22;45681;-71
2023/05/29 10:10:46;;;;;;;;;3.00;3.00;;;;;25.43;34.89;102010.22;6304415;22;45473;-74
2023/05/29 10:13:13;;;;;;;;;6.33;5.00;;;;;25.48;34.57;102014.03;6304137;22;46411;-74
2023/05/29 10:15:41;;;;;;;;;3.67;3.33;;;;;25.49;34.60;101993.53;6304354;22;45247;-73
2023/05/29 10:18:20;;;;;;;;;3.67;3.33;;;;;25.56;34.78;102015.81;6305027;22;45283;-72
2023/05/29 10:20:53;;;;;;;;;6.00;4.33;;;;;25.58;34.51;102008.47;6304947;22;45240;-72
2023/05/29 10:23:25;;;;;;;;;8.00;4.33;;;;;25.63;34.69;102007.97;6303943;22;46349;-74
2023/05/29 10:25:56;;;;;;;;;4.33;2.00;;;;;25.66;34.46;102018.25;6304133;22;45409;-71
2023/05/29 10:28:23;;;;;;;;;5.33;3.67;;;;;25.62;34.33;102011.63;6301605;22;45215;-72
2023/05/29 10:31:06;;;;;;;;;5.67;4.33;;;;;25.65;34.46;102018.44;6304411;22;45174;-69
2023/05/29 10:33:47;;;;;;;;;8.67;4.67;;;;;25.65;34.61;102023.75;6304727;22;46351;-71
2023/05/29 10:36:15;;;;;;;;;3.67;3.67;;;;;25.62;34.20;102012.47;6303891;22;45271;-72
2023/05/29 10:38:45;;;;;;;;;3.67;3.67;;;;;25.66;34.31;102031.56;6304975;22;45196;-71
2023/05/29 10:41:28;;;;;;;;;4.00;4.00;;;;;25.70;34.24;102016.91;6304538;22;45385;-71
2023/05/29 10:44:03;;;;;;;;;6.33;4.33;;;;;25.71;34.71;102023.06;6303955;22;45215;-72
2023/05/29 10:46:44;;;;;;;;;4.67;3.33;;;;;25.72;34.28;102017.56;6304508;22;45316;-70
2023/05/29 10:49:21;;;;;;;;;7.67;4.67;;;;;25.68;34.30;102008.25;6304099;22;45237;-72
2023/05/29 10:51:48;;;;;;;;;5.00;5.00;;;;;25.63;34.36;102015.97;6303633;22;45319;-68
2023/05/29 10:54:13;;;;;;;;;5.00;4.33;;;;;25.72;34.22;102016.72;6304528;22;46740;-73
2023/05/29 10:56:40;;;;;;;;;8.33;7.00;;;;;25.72;34.29;102020.22;6304607;22;45560;-72
2023/05/29 10:59:08;;;;;;;;;5.33;3.33;;;;;25.72;34.51;102001.56;6304181;22;45375;-72
2023/05/29 11:01:35;;;;;;;;;6.00;4.67;;;;;25.74;34.25;102009.41;6305396;22;45298;-73
2023/05/29 11:04:15;;;;;;;;;5.00;3.33;;;;;25.76;34.36;102002.06;6304094;22;45976;-72
2023/05/29 11:06:41;;;;;;;;;7.33;3.33;;;;;25.70;34.52;102011.56;6304515;22;45351;-72
2023/05/29 11:09:34;;;;;;;;;6.67;5.00;;;;;25.60;34.50;102001.16;6304591;22;45292;-73
2023/05/29 11:12:25;;;;;;;;;8.67;5.67;;;;;25.78;34.19;102007.22;6304828;22;45376;-71
2023/05/29 11:14:55;;;;;;;;;3.67;3.33;;;;;25.73;34.16;102008.59;6304109;22;46523;-71
2023/05/29 11:17:44;;;;;;;;;4.67;4.67;;;;;25.71;34.38;102002.56;6304302;22;45312;-71
2023/05/29 11:20:28;;;;;;;;;2.00;2.00;;;;;25.73;34.06;102024.59;6304496;22;45300;-73
2023/05/29 11:23:07;;;;;;;;;4.00;2.33;;;;;25.67;34.15;102011.09;6304797;22;45217;-72